SAS42F ENZV-ENVA
Flight info
| Callsign | SAS42F |
|---|---|
| Flight time | 0h 57m |
| Altitude | 37000 |
| Route | ODINU1H ODINU DCT NELSU NELSU2M |
| Aircraft | B737/M-SDE2E3FGHIRWXY/LB1 |
Departure
| Time | 2026-04-23 16:40 |
|---|---|
| Airport | Stavanger Airport, Sola (ENZV) |
Arrival
| Time | 2026-04-23 17:37 |
|---|---|
| Airport | Trondheim Airport, Værnes (ENVA) |
| Time | Latitude | Longitude | Altitude | Speed | Heading |
|---|---|---|---|---|---|
| 2026-04-23 15:57 | 58.88354 | 5.63014 | 30 ft | 0 kts | 225° |
| 2026-04-23 16:31 | 58.88363 | 5.63031 | 30 ft | 2 kts | 223° |
| 2026-04-23 16:31 | 58.88374 | 5.63051 | 31 ft | 2 kts | 225° |
| 2026-04-23 16:31 | 58.88379 | 5.63061 | 31 ft | 0 kts | 225° |
| 2026-04-23 16:34 | 58.88372 | 5.63061 | 31 ft | 1 kts | 141° |
| 2026-04-23 16:34 | 58.88362 | 5.63143 | 30 ft | 10 kts | 101° |
| 2026-04-23 16:34 | 58.88320 | 5.63255 | 31 ft | 11 kts | 158° |
| 2026-04-23 16:34 | 58.88211 | 5.63304 | 30 ft | 18 kts | 176° |
| 2026-04-23 16:35 | 58.88104 | 5.63237 | 30 ft | 14 kts | 216° |
| 2026-04-23 16:35 | 58.88042 | 5.63232 | 29 ft | 14 kts | 147° |
| 2026-04-23 16:35 | 58.87976 | 5.63368 | 30 ft | 9 kts | 153° |
| 2026-04-23 16:35 | 58.87921 | 5.63348 | 28 ft | 7 kts | 204° |
| 2026-04-23 16:36 | 58.87861 | 5.63305 | 26 ft | 10 kts | 199° |
| 2026-04-23 16:36 | 58.87783 | 5.63287 | 26 ft | 11 kts | 178° |
| 2026-04-23 16:36 | 58.87673 | 5.63290 | 26 ft | 19 kts | 181° |
| 2026-04-23 16:36 | 58.87538 | 5.63293 | 26 ft | 19 kts | 179° |
| 2026-04-23 16:37 | 58.87405 | 5.63300 | 26 ft | 18 kts | 177° |
| 2026-04-23 16:37 | 58.87276 | 5.63304 | 26 ft | 18 kts | 181° |
| 2026-04-23 16:37 | 58.87152 | 5.63302 | 27 ft | 16 kts | 174° |
| 2026-04-23 16:37 | 58.87042 | 5.63319 | 29 ft | 15 kts | 159° |
| 2026-04-23 16:38 | 58.86997 | 5.63467 | 30 ft | 12 kts | 84° |
| 2026-04-23 16:38 | 58.87024 | 5.63599 | 31 ft | 8 kts | 65° |
| 2026-04-23 16:38 | 58.87050 | 5.63707 | 32 ft | 12 kts | 63° |
| 2026-04-23 16:38 | 58.87090 | 5.63799 | 32 ft | 6 kts | 15° |
| 2026-04-23 16:39 | 58.87116 | 5.63798 | 32 ft | 0 kts | 357° |
| 2026-04-23 16:39 | 58.87220 | 5.63794 | 32 ft | 50 kts | 359° |
| 2026-04-23 16:39 | 58.87832 | 5.63780 | 31 ft | 124 kts | 358° |
| 2026-04-23 16:40 | 58.88824 | 5.63749 | 391 ft | 156 kts | 354° |
| 2026-04-23 16:40 | 58.89923 | 5.63679 | 1320 ft | 160 kts | 357° |
| 2026-04-23 16:40 | 58.90962 | 5.63671 | 2265 ft | 156 kts | 358° |
| 2026-04-23 16:40 | 58.92100 | 5.63688 | 2899 ft | 169 kts | 359° |
| 2026-04-23 16:41 | 58.93348 | 5.63701 | 3513 ft | 184 kts | 359° |
| 2026-04-23 16:41 | 58.94603 | 5.63731 | 4424 ft | 183 kts | 359° |
| 2026-04-23 16:41 | 58.95929 | 5.63751 | 4884 ft | 205 kts | 358° |
| 2026-04-23 16:41 | 58.97384 | 5.63707 | 5774 ft | 209 kts | 357° |
| 2026-04-23 16:42 | 58.98866 | 5.63660 | 6358 ft | 226 kts | 357° |
| 2026-04-23 16:42 | 59.00500 | 5.63605 | 6870 ft | 245 kts | 357° |
| 2026-04-23 16:42 | 59.02229 | 5.63560 | 7743 ft | 250 kts | 358° |
| 2026-04-23 16:42 | 59.03919 | 5.63571 | 8940 ft | 241 kts | 358° |
| 2026-04-23 16:43 | 59.05551 | 5.63668 | 9779 ft | 245 kts | 0° |
| 2026-04-23 16:43 | 59.07340 | 5.64095 | 10341 ft | 262 kts | 8° |
| 2026-04-23 16:43 | 59.09103 | 5.65231 | 11146 ft | 272 kts | 20° |
| 2026-04-23 16:43 | 59.10744 | 5.67326 | 11659 ft | 293 kts | 34° |
| 2026-04-23 16:44 | 59.12259 | 5.69948 | 11978 ft | 315 kts | 37° |
| 2026-04-23 16:44 | 59.13929 | 5.72871 | 12537 ft | 327 kts | 36° |
| 2026-04-23 16:44 | 59.15677 | 5.75813 | 13293 ft | 333 kts | 36° |
| 2026-04-23 16:44 | 59.17464 | 5.78728 | 14031 ft | 338 kts | 35° |
| 2026-04-23 16:45 | 59.19268 | 5.81617 | 14810 ft | 344 kts | 35° |
| 2026-04-23 16:45 | 59.21147 | 5.84602 | 15620 ft | 349 kts | 35° |
| 2026-04-23 16:45 | 59.23022 | 5.87578 | 16411 ft | 354 kts | 36° |
| 2026-04-23 16:45 | 59.24942 | 5.90630 | 17146 ft | 360 kts | 36° |
| 2026-04-23 16:46 | 59.26905 | 5.93756 | 17857 ft | 365 kts | 36° |
| 2026-04-23 16:46 | 59.28878 | 5.96906 | 18530 ft | 372 kts | 36° |
| 2026-04-23 16:46 | 59.30878 | 6.00107 | 19194 ft | 377 kts | 36° |
| 2026-04-23 16:46 | 59.32916 | 6.03375 | 19881 ft | 382 kts | 36° |
| 2026-04-23 16:47 | 59.34985 | 6.06697 | 20526 ft | 388 kts | 37° |
| 2026-04-23 16:47 | 59.37063 | 6.10038 | 21187 ft | 392 kts | 37° |
| 2026-04-23 16:47 | 59.39197 | 6.13474 | 21837 ft | 397 kts | 37° |
| 2026-04-23 16:47 | 59.41334 | 6.16921 | 22466 ft | 401 kts | 37° |
| 2026-04-23 16:48 | 59.43496 | 6.20414 | 23071 ft | 406 kts | 37° |
| 2026-04-23 16:48 | 59.45660 | 6.23919 | 23681 ft | 410 kts | 37° |
| 2026-04-23 16:48 | 59.47897 | 6.27546 | 24293 ft | 414 kts | 37° |
| 2026-04-23 16:48 | 59.50122 | 6.31162 | 24884 ft | 418 kts | 37° |
| 2026-04-23 16:49 | 59.51612 | 6.33587 | 25305 ft | 420 kts | 37° |
| 2026-04-23 16:49 | 59.54626 | 6.38500 | 26063 ft | 425 kts | 37° |
| 2026-04-23 16:49 | 59.56897 | 6.42210 | 26642 ft | 429 kts | 37° |
| 2026-04-23 16:49 | 59.59208 | 6.45992 | 27251 ft | 431 kts | 37° |
| 2026-04-23 16:50 | 59.61346 | 6.49497 | 27784 ft | 434 kts | 37° |
| 2026-04-23 16:50 | 59.63675 | 6.53319 | 28285 ft | 438 kts | 37° |
| 2026-04-23 16:50 | 59.66078 | 6.57082 | 28844 ft | 440 kts | 34° |
| 2026-04-23 16:50 | 59.68672 | 6.60597 | 29366 ft | 441 kts | 28° |
| 2026-04-23 16:51 | 59.71354 | 6.63427 | 29876 ft | 442 kts | 22° |
| 2026-04-23 16:51 | 59.74155 | 6.65931 | 30354 ft | 445 kts | 21° |
| 2026-04-23 16:51 | 59.77055 | 6.68281 | 30841 ft | 447 kts | 19° |
| 2026-04-23 16:51 | 59.79958 | 6.70520 | 31217 ft | 451 kts | 18° |
| 2026-04-23 16:52 | 59.82921 | 6.72764 | 31763 ft | 452 kts | 18° |
| 2026-04-23 16:52 | 59.85762 | 6.74921 | 32446 ft | 449 kts | 18° |
| 2026-04-23 16:52 | 59.88714 | 6.77185 | 33015 ft | 449 kts | 18° |
| 2026-04-23 16:52 | 59.91540 | 6.79375 | 33525 ft | 449 kts | 18° |
| 2026-04-23 16:53 | 59.94421 | 6.81627 | 34025 ft | 448 kts | 19° |
| 2026-04-23 16:53 | 59.97295 | 6.83892 | 34381 ft | 450 kts | 19° |
| 2026-04-23 16:53 | 60.00237 | 6.86226 | 34793 ft | 451 kts | 19° |
| 2026-04-23 16:53 | 60.03124 | 6.88527 | 35228 ft | 450 kts | 19° |
| 2026-04-23 16:54 | 60.06022 | 6.90847 | 35688 ft | 449 kts | 19° |
| 2026-04-23 16:54 | 60.08884 | 6.93146 | 36147 ft | 448 kts | 19° |
| 2026-04-23 16:54 | 60.11780 | 6.95477 | 36549 ft | 448 kts | 19° |
| 2026-04-23 16:54 | 60.14662 | 6.97802 | 36978 ft | 449 kts | 19° |
| 2026-04-23 16:55 | 60.17564 | 7.00147 | 37486 ft | 449 kts | 18° |
| 2026-04-23 16:55 | 60.20428 | 7.02466 | 37978 ft | 448 kts | 19° |
| 2026-04-23 16:55 | 60.23302 | 7.04799 | 38455 ft | 447 kts | 18° |
| 2026-04-23 16:55 | 60.26167 | 7.07130 | 38937 ft | 446 kts | 18° |
| 2026-04-23 16:56 | 60.29063 | 7.09488 | 39213 ft | 448 kts | 18° |
| 2026-04-23 16:56 | 60.31918 | 7.11816 | 39209 ft | 447 kts | 18° |
| 2026-04-23 16:56 | 60.37667 | 7.16525 | 39214 ft | 444 kts | 18° |
| 2026-04-23 16:57 | 60.43351 | 7.21193 | 39223 ft | 445 kts | 18° |
| 2026-04-23 16:57 | 60.49051 | 7.25892 | 39221 ft | 444 kts | 18° |
| 2026-04-23 16:58 | 60.54734 | 7.30594 | 39204 ft | 444 kts | 18° |
| 2026-04-23 16:58 | 60.60446 | 7.35340 | 39199 ft | 443 kts | 18° |
| 2026-04-23 16:59 | 60.66146 | 7.40093 | 39202 ft | 443 kts | 18° |
| 2026-04-23 16:59 | 60.71792 | 7.44819 | 39193 ft | 443 kts | 18° |
| 2026-04-23 17:00 | 60.77498 | 7.49613 | 39180 ft | 441 kts | 18° |
| 2026-04-23 17:00 | 60.83140 | 7.54374 | 39202 ft | 441 kts | 18° |
| 2026-04-23 17:01 | 60.88826 | 7.59189 | 39192 ft | 441 kts | 18° |
| 2026-04-23 17:01 | 60.94456 | 7.63973 | 39203 ft | 441 kts | 18° |
| 2026-04-23 17:02 | 61.00126 | 7.68811 | 39210 ft | 440 kts | 19° |
| 2026-04-23 17:02 | 61.05749 | 7.73625 | 39204 ft | 440 kts | 19° |
| 2026-04-23 17:03 | 61.11290 | 7.78390 | 39199 ft | 439 kts | 19° |
| 2026-04-23 17:03 | 61.16969 | 7.83293 | 39199 ft | 439 kts | 19° |
| 2026-04-23 17:04 | 61.22575 | 7.88151 | 39194 ft | 437 kts | 19° |
| 2026-04-23 17:04 | 61.28153 | 7.93005 | 39185 ft | 437 kts | 19° |
| 2026-04-23 17:05 | 61.33730 | 7.97876 | 39179 ft | 436 kts | 19° |
| 2026-04-23 17:05 | 61.39283 | 8.02745 | 39175 ft | 435 kts | 19° |
| 2026-04-23 17:06 | 61.44884 | 8.07670 | 39170 ft | 435 kts | 19° |
| 2026-04-23 17:06 | 61.50415 | 8.12557 | 39166 ft | 434 kts | 19° |
| 2026-04-23 17:07 | 61.55790 | 8.17323 | 39143 ft | 432 kts | 19° |
| 2026-04-23 17:07 | 61.61314 | 8.22242 | 39149 ft | 432 kts | 19° |
| 2026-04-23 17:08 | 61.66847 | 8.27261 | 39142 ft | 432 kts | 23° |
| 2026-04-23 17:08 | 61.71915 | 8.34130 | 39132 ft | 436 kts | 33° |
| 2026-04-23 17:09 | 61.76694 | 8.41946 | 39118 ft | 436 kts | 34° |
| 2026-04-23 17:09 | 61.79043 | 8.45848 | 38756 ft | 433 kts | 34° |
| 2026-04-23 17:09 | 61.81419 | 8.49775 | 38009 ft | 433 kts | 34° |
| 2026-04-23 17:10 | 61.83741 | 8.53580 | 37696 ft | 424 kts | 34° |
| 2026-04-23 17:10 | 61.86092 | 8.57408 | 37330 ft | 424 kts | 33° |
| 2026-04-23 17:10 | 61.88428 | 8.61187 | 36840 ft | 425 kts | 33° |
| 2026-04-23 17:10 | 61.90778 | 8.64976 | 36332 ft | 425 kts | 33° |
| 2026-04-23 17:11 | 61.93119 | 8.68746 | 35788 ft | 426 kts | 33° |
| 2026-04-23 17:11 | 61.95474 | 8.72538 | 35149 ft | 428 kts | 33° |
| 2026-04-23 17:11 | 61.97847 | 8.76361 | 34591 ft | 429 kts | 33° |
| 2026-04-23 17:11 | 62.00222 | 8.80189 | 34022 ft | 432 kts | 33° |
| 2026-04-23 17:12 | 62.02609 | 8.84044 | 33495 ft | 429 kts | 33° |
| 2026-04-23 17:12 | 62.04937 | 8.87816 | 33000 ft | 424 kts | 34° |
| 2026-04-23 17:12 | 62.07298 | 8.91650 | 32478 ft | 420 kts | 33° |
| 2026-04-23 17:12 | 62.09578 | 8.95359 | 31977 ft | 415 kts | 33° |
| 2026-04-23 17:13 | 62.11845 | 8.99053 | 31474 ft | 411 kts | 33° |
| 2026-04-23 17:13 | 62.14105 | 9.02742 | 30977 ft | 407 kts | 33° |
| 2026-04-23 17:13 | 62.16328 | 9.06377 | 30481 ft | 402 kts | 33° |
| 2026-04-23 17:13 | 62.18536 | 9.09992 | 29979 ft | 398 kts | 33° |
| 2026-04-23 17:14 | 62.20728 | 9.13588 | 29483 ft | 394 kts | 33° |
| 2026-04-23 17:14 | 62.22858 | 9.17089 | 29005 ft | 390 kts | 33° |
| 2026-04-23 17:14 | 62.25009 | 9.20628 | 28511 ft | 386 kts | 34° |
| 2026-04-23 17:14 | 62.27130 | 9.24125 | 28032 ft | 382 kts | 34° |
| 2026-04-23 17:15 | 62.29197 | 9.27539 | 27567 ft | 385 kts | 34° |
| 2026-04-23 17:15 | 62.31348 | 9.31089 | 27073 ft | 385 kts | 34° |
| 2026-04-23 17:15 | 62.33442 | 9.34560 | 26604 ft | 381 kts | 34° |
| 2026-04-23 17:15 | 62.35511 | 9.37999 | 26138 ft | 376 kts | 34° |
| 2026-04-23 17:16 | 62.37584 | 9.41451 | 25671 ft | 372 kts | 34° |
| 2026-04-23 17:16 | 62.39613 | 9.44838 | 25205 ft | 368 kts | 34° |
| 2026-04-23 17:16 | 62.41618 | 9.48186 | 24742 ft | 364 kts | 34° |
| 2026-04-23 17:16 | 62.43600 | 9.51502 | 24298 ft | 361 kts | 34° |
| 2026-04-23 17:17 | 62.45556 | 9.54779 | 23841 ft | 358 kts | 34° |
| 2026-04-23 17:17 | 62.47503 | 9.58045 | 23391 ft | 354 kts | 34° |
| 2026-04-23 17:17 | 62.48792 | 9.60212 | 23090 ft | 352 kts | 34° |
| 2026-04-23 17:17 | 62.51361 | 9.64536 | 22487 ft | 348 kts | 34° |
| 2026-04-23 17:18 | 62.55135 | 9.70907 | 21613 ft | 341 kts | 35° |
| 2026-04-23 17:18 | 62.56993 | 9.74052 | 21177 ft | 338 kts | 35° |
| 2026-04-23 17:18 | 62.58831 | 9.77169 | 20754 ft | 335 kts | 35° |
| 2026-04-23 17:19 | 62.60658 | 9.80271 | 20328 ft | 332 kts | 35° |
| 2026-04-23 17:19 | 62.62464 | 9.83342 | 19910 ft | 328 kts | 34° |
| 2026-04-23 17:19 | 62.64244 | 9.86374 | 19493 ft | 325 kts | 34° |
| 2026-04-23 17:19 | 62.66022 | 9.89423 | 19075 ft | 321 kts | 34° |
| 2026-04-23 17:20 | 62.67764 | 9.92416 | 18666 ft | 317 kts | 34° |
| 2026-04-23 17:20 | 62.71207 | 9.98291 | 17881 ft | 315 kts | 34° |
| 2026-04-23 17:21 | 62.74651 | 10.04187 | 17089 ft | 312 kts | 34° |
| 2026-04-23 17:21 | 62.76329 | 10.07080 | 16680 ft | 309 kts | 33° |
| 2026-04-23 17:21 | 62.79660 | 10.12833 | 15883 ft | 301 kts | 33° |
| 2026-04-23 17:22 | 62.81281 | 10.15635 | 15496 ft | 297 kts | 33° |
| 2026-04-23 17:22 | 62.84485 | 10.21188 | 14726 ft | 289 kts | 33° |
| 2026-04-23 17:23 | 62.87571 | 10.26554 | 13997 ft | 284 kts | 33° |
| 2026-04-23 17:23 | 62.89122 | 10.29247 | 13626 ft | 288 kts | 33° |
| 2026-04-23 17:23 | 62.92231 | 10.34672 | 12866 ft | 281 kts | 33° |
| 2026-04-23 17:24 | 62.93756 | 10.37345 | 12533 ft | 280 kts | 32° |
| 2026-04-23 17:24 | 62.95290 | 10.40027 | 12150 ft | 280 kts | 32° |
| 2026-04-23 17:24 | 62.98276 | 10.45273 | 11446 ft | 271 kts | 32° |
| 2026-04-23 17:25 | 63.01233 | 10.50463 | 10740 ft | 277 kts | 31° |
| 2026-04-23 17:25 | 63.02742 | 10.53121 | 10379 ft | 272 kts | 31° |
| 2026-04-23 17:26 | 63.05568 | 10.58145 | 10039 ft | 251 kts | 31° |
| 2026-04-23 17:26 | 63.08267 | 10.62912 | 9337 ft | 247 kts | 30° |
| 2026-04-23 17:27 | 63.10989 | 10.67720 | 8715 ft | 252 kts | 31° |
| 2026-04-23 17:27 | 63.12363 | 10.70173 | 8398 ft | 249 kts | 31° |
| 2026-04-23 17:27 | 63.13698 | 10.72560 | 8092 ft | 246 kts | 30° |
| 2026-04-23 17:27 | 63.15035 | 10.74944 | 7784 ft | 248 kts | 30° |
| 2026-04-23 17:28 | 63.16392 | 10.77353 | 7485 ft | 250 kts | 30° |
| 2026-04-23 17:28 | 63.17718 | 10.79733 | 7348 ft | 241 kts | 30° |
| 2026-04-23 17:28 | 63.19036 | 10.82089 | 7288 ft | 249 kts | 30° |
| 2026-04-23 17:28 | 63.20390 | 10.84502 | 7209 ft | 250 kts | 30° |
| 2026-04-23 17:29 | 63.21754 | 10.86948 | 6982 ft | 249 kts | 30° |
| 2026-04-23 17:29 | 63.23093 | 10.89349 | 6599 ft | 249 kts | 29° |
| 2026-04-23 17:29 | 63.25811 | 10.94198 | 5781 ft | 251 kts | 30° |
| 2026-04-23 17:30 | 63.26709 | 10.95817 | 5578 ft | 248 kts | 30° |
| 2026-04-23 17:30 | 63.29786 | 11.01382 | 4932 ft | 239 kts | 30° |
| 2026-04-23 17:30 | 63.31081 | 11.03722 | 4800 ft | 240 kts | 30° |
| 2026-04-23 17:31 | 63.32364 | 11.06045 | 4647 ft | 231 kts | 30° |
| 2026-04-23 17:31 | 63.33569 | 11.08294 | 4494 ft | 226 kts | 33° |
| 2026-04-23 17:31 | 63.34604 | 11.10971 | 4307 ft | 229 kts | 46° |
| 2026-04-23 17:31 | 63.35468 | 11.13981 | 4049 ft | 230 kts | 50° |
| 2026-04-23 17:32 | 63.36389 | 11.16759 | 3793 ft | 219 kts | 32° |
| 2026-04-23 17:32 | 63.37639 | 11.18417 | 3574 ft | 203 kts | 13° |
| 2026-04-23 17:32 | 63.38932 | 11.19611 | 3377 ft | 202 kts | 14° |
| 2026-04-23 17:32 | 63.40240 | 11.20723 | 3172 ft | 194 kts | 4° |
| 2026-04-23 17:33 | 63.41494 | 11.20957 | 2992 ft | 184 kts | 347° |
| 2026-04-23 17:33 | 63.42729 | 11.20211 | 2716 ft | 178 kts | 328° |
| 2026-04-23 17:33 | 63.43721 | 11.18669 | 2503 ft | 172 kts | 316° |
| 2026-04-23 17:33 | 63.44558 | 11.16860 | 2281 ft | 162 kts | 310° |
| 2026-04-23 17:34 | 63.45166 | 11.14828 | 2132 ft | 151 kts | 295° |
| 2026-04-23 17:34 | 63.45526 | 11.12581 | 1856 ft | 156 kts | 288° |
| 2026-04-23 17:34 | 63.45731 | 11.08019 | 1333 ft | 137 kts | 271° |
| 2026-04-23 17:35 | 63.45719 | 11.06220 | 1155 ft | 126 kts | 274° |
| 2026-04-23 17:35 | 63.45695 | 11.02356 | 812 ft | 112 kts | 272° |
| 2026-04-23 17:35 | 63.45711 | 11.00672 | 706 ft | 106 kts | 277° |
| 2026-04-23 17:36 | 63.45754 | 10.99020 | 573 ft | 106 kts | 270° |
| 2026-04-23 17:36 | 63.45738 | 10.97374 | 443 ft | 106 kts | 274° |
| 2026-04-23 17:36 | 63.45748 | 10.95696 | 259 ft | 109 kts | 271° |
| 2026-04-23 17:36 | 63.45757 | 10.93992 | 64 ft | 110 kts | 270° |
| 2026-04-23 17:37 | 63.45759 | 10.92391 | 12 ft | 77 kts | 270° |
| 2026-04-23 17:37 | 63.45760 | 10.91646 | 6 ft | 23 kts | 271° |
| 2026-04-23 17:37 | 63.45693 | 10.91518 | 3 ft | 5 kts | 183° |
| 2026-04-23 17:38 | 63.45655 | 10.91518 | 3 ft | 5 kts | 179° |
| 2026-04-23 17:38 | 63.45618 | 10.91526 | 3 ft | 5 kts | 158° |
| 2026-04-23 17:38 | 63.45598 | 10.91599 | 3 ft | 6 kts | 93° |
| 2026-04-23 17:38 | 63.45596 | 10.91671 | 5 ft | 3 kts | 92° |
| 2026-04-23 17:39 | 63.45578 | 10.91732 | 5 ft | 8 kts | 160° |
| 2026-04-23 17:39 | 63.45536 | 10.91738 | 5 ft | 6 kts | 181° |
| 2026-04-23 17:39 | 63.45504 | 10.91738 | 4 ft | 2 kts | 181° |
| 2026-04-23 17:39 | 63.45497 | 10.91738 | 4 ft | 0 kts | 180° |